sensor_id;sensor_type;location;lat;lon;timestamp;P1;durP1;ratioP1;P2;durP2;ratioP2
56161;SDS011;42045;52.986;6.014;2022-11-20T00:01:45;26.40;;;17.15;;
56161;SDS011;42045;52.986;6.014;2022-11-20T00:04:11;24.65;;;16.85;;
56161;SDS011;42045;52.986;6.014;2022-11-20T00:06:37;22.60;;;16.05;;
56161;SDS011;42045;52.986;6.014;2022-11-20T00:09:02;26.77;;;16.65;;
56161;SDS011;42045;52.986;6.014;2022-11-20T00:11:30;28.20;;;18.98;;
56161;SDS011;42045;52.986;6.014;2022-11-20T00:13:59;26.23;;;17.52;;
56161;SDS011;42045;52.986;6.014;2022-11-20T00:16:26;24.58;;;16.45;;
56161;SDS011;42045;52.986;6.014;2022-11-20T00:18:53;21.83;;;14.57;;
56161;SDS011;42045;52.986;6.014;2022-11-20T00:21:23;21.85;;;14.80;;
56161;SDS011;42045;52.986;6.014;2022-11-20T00:23:50;20.42;;;14.30;;
56161;SDS011;42045;52.986;6.014;2022-11-20T00:26:18;21.52;;;15.73;;
56161;SDS011;42045;52.986;6.014;2022-11-20T00:28:49;22.83;;;15.10;;
56161;SDS011;42045;52.986;6.014;2022-11-20T00:31:16;20.52;;;14.20;;
56161;SDS011;42045;52.986;6.014;2022-11-20T00:33:43;23.48;;;15.75;;
56161;SDS011;42045;52.986;6.014;2022-11-20T00:36:10;23.63;;;15.10;;
56161;SDS011;42045;52.986;6.014;2022-11-20T00:38:46;21.98;;;15.20;;
56161;SDS011;42045;52.986;6.014;2022-11-20T00:41:16;19.00;;;13.73;;
56161;SDS011;42045;52.986;6.014;2022-11-20T00:43:41;24.27;;;14.40;;
56161;SDS011;42045;52.986;6.014;2022-11-20T00:46:18;23.30;;;14.98;;
56161;SDS011;42045;52.986;6.014;2022-11-20T00:48:45;20.40;;;13.52;;
56161;SDS011;42045;52.986;6.014;2022-11-20T00:51:12;21.02;;;15.13;;
56161;SDS011;42045;52.986;6.014;2022-11-20T00:53:39;21.05;;;14.82;;
56161;SDS011;42045;52.986;6.014;2022-11-20T00:56:06;22.60;;;14.57;;
56161;SDS011;42045;52.986;6.014;2022-11-20T00:58:35;22.58;;;15.32;;
56161;SDS011;42045;52.986;6.014;2022-11-20T01:01:03;23.23;;;15.93;;
56161;SDS011;42045;52.986;6.014;2022-11-20T01:03:33;21.60;;;16.02;;
56161;SDS011;42045;52.986;6.014;2022-11-20T01:06:05;22.95;;;15.65;;
56161;SDS011;42045;52.986;6.014;2022-11-20T01:08:33;21.27;;;14.70;;
56161;SDS011;42045;52.986;6.014;2022-11-20T01:11:01;22.65;;;15.82;;
56161;SDS011;42045;52.986;6.014;2022-11-20T01:13:28;21.35;;;15.07;;
56161;SDS011;42045;52.986;6.014;2022-11-20T01:16:17;23.17;;;15.43;;
56161;SDS011;42045;52.986;6.014;2022-11-20T01:18:45;21.80;;;15.35;;
56161;SDS011;42045;52.986;6.014;2022-11-20T01:21:14;24.27;;;16.45;;
56161;SDS011;42045;52.986;6.014;2022-11-20T01:23:51;23.05;;;15.10;;
56161;SDS011;42045;52.986;6.014;2022-11-20T01:26:18;27.25;;;16.83;;
56161;SDS011;42045;52.986;6.014;2022-11-20T01:28:45;22.05;;;16.23;;
56161;SDS011;42045;52.986;6.014;2022-11-20T01:31:13;26.15;;;15.70;;
56161;SDS011;42045;52.986;6.014;2022-11-20T01:33:50;24.92;;;16.17;;
56161;SDS011;42045;52.986;6.014;2022-11-20T01:36:18;23.15;;;15.75;;
56161;SDS011;42045;52.986;6.014;2022-11-20T01:38:45;20.20;;;15.60;;
56161;SDS011;42045;52.986;6.014;2022-11-20T01:41:11;22.38;;;16.02;;
56161;SDS011;42045;52.986;6.014;2022-11-20T01:43:57;22.13;;;14.52;;
56161;SDS011;42045;52.986;6.014;2022-11-20T01:46:23;24.05;;;16.08;;
56161;SDS011;42045;52.986;6.014;2022-11-20T01:51:35;20.95;;;15.18;;
56161;SDS011;42045;52.986;6.014;2022-11-20T01:54:08;22.95;;;15.70;;
56161;SDS011;42045;52.986;6.014;2022-11-20T01:56:38;22.67;;;16.48;;
56161;SDS011;42045;52.986;6.014;2022-11-20T01:59:08;24.38;;;16.73;;
56161;SDS011;42045;52.986;6.014;2022-11-20T02:01:36;24.58;;;15.98;;
56161;SDS011;42045;52.986;6.014;2022-11-20T02:04:01;24.13;;;15.95;;
56161;SDS011;42045;52.986;6.014;2022-11-20T02:06:42;27.35;;;17.55;;
56161;SDS011;42045;52.986;6.014;2022-11-20T02:09:10;25.45;;;17.05;;
56161;SDS011;42045;52.986;6.014;2022-11-20T02:11:36;24.55;;;16.08;;
56161;SDS011;42045;52.986;6.014;2022-11-20T02:14:02;23.98;;;16.17;;
56161;SDS011;42045;52.986;6.014;2022-11-20T02:16:30;24.30;;;16.48;;
56161;SDS011;42045;52.986;6.014;2022-11-20T02:19:02;27.58;;;18.20;;
56161;SDS011;42045;52.986;6.014;2022-11-20T02:21:41;24.88;;;16.70;;
56161;SDS011;42045;52.986;6.014;2022-11-20T02:24:17;24.73;;;17.35;;
56161;SDS011;42045;52.986;6.014;2022-11-20T02:26:51;30.00;;;18.05;;
56161;SDS011;42045;52.986;6.014;2022-11-20T02:29:45;25.88;;;17.02;;
56161;SDS011;42045;52.986;6.014;2022-11-20T02:34:48;23.38;;;16.75;;
56161;SDS011;42045;52.986;6.014;2022-11-20T02:37:14;24.35;;;16.63;;
56161;SDS011;42045;52.986;6.014;2022-11-20T02:39:41;23.77;;;17.38;;
56161;SDS011;42045;52.986;6.014;2022-11-20T02:42:08;24.95;;;17.40;;
56161;SDS011;42045;52.986;6.014;2022-11-20T02:44:33;24.00;;;16.48;;
56161;SDS011;42045;52.986;6.014;2022-11-20T02:46:59;22.15;;;16.35;;
56161;SDS011;42045;52.986;6.014;2022-11-20T02:49:25;23.55;;;16.33;;
56161;SDS011;42045;52.986;6.014;2022-11-20T02:51:50;23.92;;;15.45;;
56161;SDS011;42045;52.986;6.014;2022-11-20T02:54:16;23.00;;;16.50;;
56161;SDS011;42045;52.986;6.014;2022-11-20T02:56:42;21.42;;;15.45;;
56161;SDS011;42045;52.986;6.014;2022-11-20T02:59:08;32.47;;;17.08;;
56161;SDS011;42045;52.986;6.014;2022-11-20T03:01:34;22.95;;;15.48;;
56161;SDS011;42045;52.986;6.014;2022-11-20T03:04:00;24.20;;;16.27;;
56161;SDS011;42045;52.986;6.014;2022-11-20T03:06:26;23.33;;;16.23;;
56161;SDS011;42045;52.986;6.014;2022-11-20T03:08:52;22.63;;;15.18;;
56161;SDS011;42045;52.986;6.014;2022-11-20T03:11:18;20.15;;;14.50;;
56161;SDS011;42045;52.986;6.014;2022-11-20T03:13:44;22.25;;;15.77;;
56161;SDS011;42045;52.986;6.014;2022-11-20T03:16:10;23.73;;;15.90;;
56161;SDS011;42045;52.986;6.014;2022-11-20T03:18:38;25.00;;;16.95;;
56161;SDS011;42045;52.986;6.014;2022-11-20T03:21:05;22.45;;;15.68;;
56161;SDS011;42045;52.986;6.014;2022-11-20T03:23:31;24.63;;;16.67;;
56161;SDS011;42045;52.986;6.014;2022-11-20T03:29:00;22.55;;;15.95;;
56161;SDS011;42045;52.986;6.014;2022-11-20T03:31:29;22.63;;;16.33;;
56161;SDS011;42045;52.986;6.014;2022-11-20T03:34:03;23.75;;;15.70;;
56161;SDS011;42045;52.986;6.014;2022-11-20T03:36:29;22.48;;;15.38;;
56161;SDS011;42045;52.986;6.014;2022-11-20T03:38:55;24.30;;;16.08;;
56161;SDS011;42045;52.986;6.014;2022-11-20T03:41:22;21.50;;;15.48;;
56161;SDS011;42045;52.986;6.014;2022-11-20T03:43:50;21.33;;;15.02;;
56161;SDS011;42045;52.986;6.014;2022-11-20T03:46:18;22.20;;;15.45;;
56161;SDS011;42045;52.986;6.014;2022-11-20T03:48:43;20.83;;;15.10;;
56161;SDS011;42045;52.986;6.014;2022-11-20T03:51:13;20.08;;;14.13;;
56161;SDS011;42045;52.986;6.014;2022-11-20T03:53:40;20.25;;;14.40;;
56161;SDS011;42045;52.986;6.014;2022-11-20T03:56:08;23.70;;;15.60;;
56161;SDS011;42045;52.986;6.014;2022-11-20T03:58:36;21.40;;;15.48;;
56161;SDS011;42045;52.986;6.014;2022-11-20T04:01:08;24.58;;;14.70;;
56161;SDS011;42045;52.986;6.014;2022-11-20T04:03:39;22.15;;;15.02;;
56161;SDS011;42045;52.986;6.014;2022-11-20T04:06:10;21.73;;;14.43;;
56161;SDS011;42045;52.986;6.014;2022-11-20T04:08:43;20.33;;;14.07;;
56161;SDS011;42045;52.986;6.014;2022-11-20T04:13:40;22.55;;;15.15;;
56161;SDS011;42045;52.986;6.014;2022-11-20T04:16:07;18.50;;;14.57;;
56161;SDS011;42045;52.986;6.014;2022-11-20T04:18:33;21.10;;;14.85;;
56161;SDS011;42045;52.986;6.014;2022-11-20T04:20:59;21.88;;;14.55;;
56161;SDS011;42045;52.986;6.014;2022-11-20T04:23:25;20.10;;;13.93;;
56161;SDS011;42045;52.986;6.014;2022-11-20T04:25:52;18.95;;;13.55;;
56161;SDS011;42045;52.986;6.014;2022-11-20T04:28:18;19.70;;;13.88;;
56161;SDS011;42045;52.986;6.014;2022-11-20T04:30:43;18.42;;;13.68;;
56161;SDS011;42045;52.986;6.014;2022-11-20T04:33:09;23.50;;;14.25;;
56161;SDS011;42045;52.986;6.014;2022-11-20T04:35:35;20.23;;;14.45;;
56161;SDS011;42045;52.986;6.014;2022-11-20T04:38:01;17.80;;;13.45;;
56161;SDS011;42045;52.986;6.014;2022-11-20T04:40:28;20.08;;;13.82;;
56161;SDS011;42045;52.986;6.014;2022-11-20T04:42:54;20.52;;;14.15;;
56161;SDS011;42045;52.986;6.014;2022-11-20T04:45:20;21.15;;;13.52;;
56161;SDS011;42045;52.986;6.014;2022-11-20T04:47:47;18.85;;;14.02;;
56161;SDS011;42045;52.986;6.014;2022-11-20T04:50:13;18.30;;;14.13;;
56161;SDS011;42045;52.986;6.014;2022-11-20T04:52:38;20.88;;;14.68;;
56161;SDS011;42045;52.986;6.014;2022-11-20T04:55:04;20.00;;;14.57;;
56161;SDS011;42045;52.986;6.014;2022-11-20T04:57:30;18.98;;;14.05;;
56161;SDS011;42045;52.986;6.014;2022-11-20T04:59:56;20.70;;;14.90;;
56161;SDS011;42045;52.986;6.014;2022-11-20T05:02:21;21.85;;;14.52;;
56161;SDS011;42045;52.986;6.014;2022-11-20T05:04:47;20.05;;;13.15;;
56161;SDS011;42045;52.986;6.014;2022-11-20T05:07:13;18.75;;;13.98;;
56161;SDS011;42045;52.986;6.014;2022-11-20T05:09:39;19.95;;;13.93;;
56161;SDS011;42045;52.986;6.014;2022-11-20T05:12:06;18.98;;;12.90;;
56161;SDS011;42045;52.986;6.014;2022-11-20T05:14:33;16.85;;;12.98;;
56161;SDS011;42045;52.986;6.014;2022-11-20T05:16:59;21.50;;;14.88;;
56161;SDS011;42045;52.986;6.014;2022-11-20T05:19:24;20.25;;;14.48;;
56161;SDS011;42045;52.986;6.014;2022-11-20T05:21:50;20.98;;;15.65;;
56161;SDS011;42045;52.986;6.014;2022-11-20T05:24:16;22.58;;;14.82;;
56161;SDS011;42045;52.986;6.014;2022-11-20T05:26:42;20.98;;;15.10;;
56161;SDS011;42045;52.986;6.014;2022-11-20T05:29:09;19.58;;;14.43;;
56161;SDS011;42045;52.986;6.014;2022-11-20T05:31:38;21.60;;;15.75;;
56161;SDS011;42045;52.986;6.014;2022-11-20T05:34:05;22.05;;;15.27;;
56161;SDS011;42045;52.986;6.014;2022-11-20T05:36:31;19.38;;;13.93;;
56161;SDS011;42045;52.986;6.014;2022-11-20T05:38:57;22.90;;;15.80;;
56161;SDS011;42045;52.986;6.014;2022-11-20T05:41:22;19.33;;;15.35;;
56161;SDS011;42045;52.986;6.014;2022-11-20T05:43:48;24.30;;;15.98;;
56161;SDS011;42045;52.986;6.014;2022-11-20T05:46:16;19.83;;;14.45;;
56161;SDS011;42045;52.986;6.014;2022-11-20T05:48:43;22.80;;;14.60;;
56161;SDS011;42045;52.986;6.014;2022-11-20T05:51:11;23.25;;;15.60;;
56161;SDS011;42045;52.986;6.014;2022-11-20T05:53:38;22.10;;;15.57;;
56161;SDS011;42045;52.986;6.014;2022-11-20T05:56:08;20.92;;;15.02;;
56161;SDS011;42045;52.986;6.014;2022-11-20T05:58:36;23.85;;;16.50;;
56161;SDS011;42045;52.986;6.014;2022-11-20T06:01:04;21.45;;;14.65;;
56161;SDS011;42045;52.986;6.014;2022-11-20T06:03:47;21.60;;;15.00;;
56161;SDS011;42045;52.986;6.014;2022-11-20T06:06:15;20.77;;;14.95;;
56161;SDS011;42045;52.986;6.014;2022-11-20T06:08:42;21.30;;;15.15;;
56161;SDS011;42045;52.986;6.014;2022-11-20T06:11:09;20.50;;;14.43;;
56161;SDS011;42045;52.986;6.014;2022-11-20T06:13:36;21.17;;;15.50;;
56161;SDS011;42045;52.986;6.014;2022-11-20T06:16:02;22.08;;;15.10;;
56161;SDS011;42045;52.986;6.014;2022-11-20T06:18:28;21.20;;;15.20;;
56161;SDS011;42045;52.986;6.014;2022-11-20T06:21:01;24.40;;;15.82;;
56161;SDS011;42045;52.986;6.014;2022-11-20T06:23:32;20.45;;;15.55;;
56161;SDS011;42045;52.986;6.014;2022-11-20T06:26:05;23.73;;;15.23;;
56161;SDS011;42045;52.986;6.014;2022-11-20T06:28:32;23.73;;;16.08;;
56161;SDS011;42045;52.986;6.014;2022-11-20T06:30:58;21.73;;;15.35;;
56161;SDS011;42045;52.986;6.014;2022-11-20T06:33:24;22.00;;;15.93;;
56161;SDS011;42045;52.986;6.014;2022-11-20T06:35:50;20.83;;;14.65;;
56161;SDS011;42045;52.986;6.014;2022-11-20T06:38:16;20.90;;;15.48;;
56161;SDS011;42045;52.986;6.014;2022-11-20T06:40:41;19.80;;;15.18;;
56161;SDS011;42045;52.986;6.014;2022-11-20T06:43:08;19.92;;;15.30;;
56161;SDS011;42045;52.986;6.014;2022-11-20T06:45:37;21.05;;;15.32;;
56161;SDS011;42045;52.986;6.014;2022-11-20T06:48:03;24.88;;;16.80;;
56161;SDS011;42045;52.986;6.014;2022-11-20T06:50:29;22.38;;;14.70;;
56161;SDS011;42045;52.986;6.014;2022-11-20T06:52:55;24.55;;;15.10;;
56161;SDS011;42045;52.986;6.014;2022-11-20T06:55:20;21.05;;;15.98;;
56161;SDS011;42045;52.986;6.014;2022-11-20T06:57:46;22.63;;;16.02;;
56161;SDS011;42045;52.986;6.014;2022-11-20T07:00:12;24.88;;;15.63;;
56161;SDS011;42045;52.986;6.014;2022-11-20T07:02:38;23.75;;;15.75;;
56161;SDS011;42045;52.986;6.014;2022-11-20T07:05:04;22.60;;;15.63;;
56161;SDS011;42045;52.986;6.014;2022-11-20T07:07:30;25.77;;;16.00;;
56161;SDS011;42045;52.986;6.014;2022-11-20T07:09:55;23.25;;;16.02;;
56161;SDS011;42045;52.986;6.014;2022-11-20T07:12:21;21.95;;;16.55;;
56161;SDS011;42045;52.986;6.014;2022-11-20T07:14:47;21.58;;;15.63;;
56161;SDS011;42045;52.986;6.014;2022-11-20T07:17:12;24.48;;;15.52;;
56161;SDS011;42045;52.986;6.014;2022-11-20T07:19:38;20.70;;;15.82;;
56161;SDS011;42045;52.986;6.014;2022-11-20T07:22:04;21.92;;;16.48;;
56161;SDS011;42045;52.986;6.014;2022-11-20T07:24:29;19.65;;;15.13;;
56161;SDS011;42045;52.986;6.014;2022-11-20T07:26:55;20.92;;;15.40;;
56161;SDS011;42045;52.986;6.014;2022-11-20T07:29:20;20.98;;;15.40;;
56161;SDS011;42045;52.986;6.014;2022-11-20T07:31:46;22.40;;;16.20;;
56161;SDS011;42045;52.986;6.014;2022-11-20T07:34:12;23.20;;;15.68;;
56161;SDS011;42045;52.986;6.014;2022-11-20T07:36:37;21.52;;;15.50;;
56161;SDS011;42045;52.986;6.014;2022-11-20T07:39:04;23.35;;;17.23;;
56161;SDS011;42045;52.986;6.014;2022-11-20T07:41:30;24.63;;;17.23;;
56161;SDS011;42045;52.986;6.014;2022-11-20T07:43:56;23.00;;;16.08;;
56161;SDS011;42045;52.986;6.014;2022-11-20T07:46:21;24.65;;;17.90;;
56161;SDS011;42045;52.986;6.014;2022-11-20T07:48:47;25.00;;;16.77;;
56161;SDS011;42045;52.986;6.014;2022-11-20T07:51:13;29.67;;;17.73;;
56161;SDS011;42045;52.986;6.014;2022-11-20T07:53:38;25.27;;;16.50;;
56161;SDS011;42045;52.986;6.014;2022-11-20T07:56:04;22.23;;;15.70;;
56161;SDS011;42045;52.986;6.014;2022-11-20T07:58:30;21.50;;;15.63;;
56161;SDS011;42045;52.986;6.014;2022-11-20T08:00:58;21.83;;;16.10;;
56161;SDS011;42045;52.986;6.014;2022-11-20T08:03:28;22.98;;;16.40;;
56161;SDS011;42045;52.986;6.014;2022-11-20T08:05:54;22.00;;;16.00;;
56161;SDS011;42045;52.986;6.014;2022-11-20T08:08:23;22.13;;;15.75;;
56161;SDS011;42045;52.986;6.014;2022-11-20T08:10:48;22.05;;;15.90;;
56161;SDS011;42045;52.986;6.014;2022-11-20T08:13:14;22.67;;;15.55;;
56161;SDS011;42045;52.986;6.014;2022-11-20T08:15:58;23.60;;;15.60;;
56161;SDS011;42045;52.986;6.014;2022-11-20T08:18:24;18.98;;;14.13;;
56161;SDS011;42045;52.986;6.014;2022-11-20T08:20:49;20.33;;;14.88;;
56161;SDS011;42045;52.986;6.014;2022-11-20T08:23:15;21.58;;;15.45;;
56161;SDS011;42045;52.986;6.014;2022-11-20T08:25:41;23.73;;;16.27;;
56161;SDS011;42045;52.986;6.014;2022-11-20T08:28:07;21.73;;;14.55;;
56161;SDS011;42045;52.986;6.014;2022-11-20T08:30:34;21.20;;;15.48;;
56161;SDS011;42045;52.986;6.014;2022-11-20T08:33:01;22.33;;;15.45;;
56161;SDS011;42045;52.986;6.014;2022-11-20T08:35:32;19.65;;;14.60;;
56161;SDS011;42045;52.986;6.014;2022-11-20T08:37:58;21.80;;;15.52;;
56161;SDS011;42045;52.986;6.014;2022-11-20T08:40:24;22.02;;;16.23;;
56161;SDS011;42045;52.986;6.014;2022-11-20T08:42:50;21.13;;;15.15;;
56161;SDS011;42045;52.986;6.014;2022-11-20T08:45:17;21.40;;;16.23;;
56161;SDS011;42045;52.986;6.014;2022-11-20T08:47:43;21.15;;;15.63;;
56161;SDS011;42045;52.986;6.014;2022-11-20T08:50:10;22.98;;;15.25;;
56161;SDS011;42045;52.986;6.014;2022-11-20T08:52:37;21.00;;;14.68;;
56161;SDS011;42045;52.986;6.014;2022-11-20T08:55:04;22.85;;;15.82;;
56161;SDS011;42045;52.986;6.014;2022-11-20T08:57:33;22.02;;;16.02;;
56161;SDS011;42045;52.986;6.014;2022-11-20T08:59:59;20.55;;;15.70;;
56161;SDS011;42045;52.986;6.014;2022-11-20T09:02:25;20.40;;;15.13;;
56161;SDS011;42045;52.986;6.014;2022-11-20T09:04:51;22.25;;;14.95;;
56161;SDS011;42045;52.986;6.014;2022-11-20T09:07:18;20.38;;;15.38;;
56161;SDS011;42045;52.986;6.014;2022-11-20T09:09:44;22.27;;;15.40;;
56161;SDS011;42045;52.986;6.014;2022-11-20T09:12:09;21.20;;;15.52;;
56161;SDS011;42045;52.986;6.014;2022-11-20T09:14:35;20.00;;;14.10;;
56161;SDS011;42045;52.986;6.014;2022-11-20T09:17:01;20.20;;;15.18;;
56161;SDS011;42045;52.986;6.014;2022-11-20T09:19:26;22.45;;;15.77;;
56161;SDS011;42045;52.986;6.014;2022-11-20T09:21:52;21.25;;;15.70;;
56161;SDS011;42045;52.986;6.014;2022-11-20T09:24:18;20.10;;;15.02;;
56161;SDS011;42045;52.986;6.014;2022-11-20T09:26:45;23.02;;;15.50;;
56161;SDS011;42045;52.986;6.014;2022-11-20T09:29:11;22.15;;;15.23;;
56161;SDS011;42045;52.986;6.014;2022-11-20T09:31:36;22.05;;;14.85;;
56161;SDS011;42045;52.986;6.014;2022-11-20T09:34:02;19.17;;;14.73;;
56161;SDS011;42045;52.986;6.014;2022-11-20T09:36:28;20.15;;;13.98;;
56161;SDS011;42045;52.986;6.014;2022-11-20T09:38:53;20.58;;;14.18;;
56161;SDS011;42045;52.986;6.014;2022-11-20T09:44:30;21.75;;;14.63;;
56161;SDS011;42045;52.986;6.014;2022-11-20T09:55:15;19.00;;;13.32;;
56161;SDS011;42045;52.986;6.014;2022-11-20T09:57:42;18.33;;;13.75;;
56161;SDS011;42045;52.986;6.014;2022-11-20T10:00:12;16.58;;;13.25;;
56161;SDS011;42045;52.986;6.014;2022-11-20T10:02:42;18.77;;;13.10;;
56161;SDS011;42045;52.986;6.014;2022-11-20T10:05:18;16.15;;;12.32;;
56161;SDS011;42045;52.986;6.014;2022-11-20T10:30:08;17.10;;;12.82;;
56161;SDS011;42045;52.986;6.014;2022-11-20T10:32:43;13.98;;;10.98;;
56161;SDS011;42045;52.986;6.014;2022-11-20T10:35:27;16.08;;;11.82;;
56161;SDS011;42045;52.986;6.014;2022-11-20T10:38:19;13.30;;;10.77;;
56161;SDS011;42045;52.986;6.014;2022-11-20T10:40:51;13.50;;;10.43;;
56161;SDS011;42045;52.986;6.014;2022-11-20T10:43:41;18.85;;;14.05;;
56161;SDS011;42045;52.986;6.014;2022-11-20T10:46:18;15.05;;;11.48;;
56161;SDS011;42045;52.986;6.014;2022-11-20T10:48:47;14.20;;;10.05;;
56161;SDS011;42045;52.986;6.014;2022-11-20T10:56:51;13.27;;;10.57;;
56161;SDS011;42045;52.986;6.014;2022-11-20T11:02:24;15.32;;;10.60;;
56161;SDS011;42045;52.986;6.014;2022-11-20T11:05:04;11.90;;;9.75;;
56161;SDS011;42045;52.986;6.014;2022-11-20T11:07:40;14.07;;;10.65;;
56161;SDS011;42045;52.986;6.014;2022-11-20T11:10:18;12.90;;;9.68;;
56161;SDS011;42045;52.986;6.014;2022-11-20T11:12:47;12.57;;;9.60;;
56161;SDS011;42045;52.986;6.014;2022-11-20T11:15:59;13.50;;;10.65;;
56161;SDS011;42045;52.986;6.014;2022-11-20T11:18:03;14.13;;;9.77;;
56161;SDS011;42045;52.986;6.014;2022-11-20T11:20:29;13.65;;;10.50;;
56161;SDS011;42045;52.986;6.014;2022-11-20T11:22:57;13.63;;;10.52;;
56161;SDS011;42045;52.986;6.014;2022-11-20T11:28:00;14.30;;;10.38;;
56161;SDS011;42045;52.986;6.014;2022-11-20T11:30:43;13.20;;;11.20;;
56161;SDS011;42045;52.986;6.014;2022-11-20T11:33:10;10.63;;;9.18;;
56161;SDS011;42045;52.986;6.014;2022-11-20T11:38:12;12.82;;;10.10;;
56161;SDS011;42045;52.986;6.014;2022-11-20T11:40:43;12.77;;;9.93;;
56161;SDS011;42045;52.986;6.014;2022-11-20T11:48:58;15.90;;;9.60;;
56161;SDS011;42045;52.986;6.014;2022-11-20T11:54:22;13.00;;;9.02;;
56161;SDS011;42045;52.986;6.014;2022-11-20T11:56:52;11.68;;;9.05;;
56161;SDS011;42045;52.986;6.014;2022-11-20T12:02:24;11.88;;;9.88;;
56161;SDS011;42045;52.986;6.014;2022-11-20T12:05:15;12.93;;;10.23;;
56161;SDS011;42045;52.986;6.014;2022-11-20T12:07:49;13.45;;;9.98;;
56161;SDS011;42045;52.986;6.014;2022-11-20T12:16:03;15.93;;;10.98;;
56161;SDS011;42045;52.986;6.014;2022-11-20T12:18:29;11.02;;;8.63;;
56161;SDS011;42045;52.986;6.014;2022-11-20T12:21:02;11.10;;;8.90;;
56161;SDS011;42045;52.986;6.014;2022-11-20T12:23:43;10.75;;;8.88;;
56161;SDS011;42045;52.986;6.014;2022-11-20T12:29:02;10.57;;;8.85;;
56161;SDS011;42045;52.986;6.014;2022-11-20T12:34:30;11.05;;;8.63;;
56161;SDS011;42045;52.986;6.014;2022-11-20T12:39:42;10.40;;;8.88;;
56161;SDS011;42045;52.986;6.014;2022-11-20T13:07:02;13.55;;;9.27;;
56161;SDS011;42045;52.986;6.014;2022-11-20T13:09:32;12.27;;;9.27;;
56161;SDS011;42045;52.986;6.014;2022-11-20T13:12:10;10.10;;;8.93;;
56161;SDS011;42045;52.986;6.014;2022-11-20T13:17:57;12.32;;;10.23;;
56161;SDS011;42045;52.986;6.014;2022-11-20T13:20:25;13.88;;;10.27;;
56161;SDS011;42045;52.986;6.014;2022-11-20T13:22:52;11.60;;;9.63;;
56161;SDS011;42045;52.986;6.014;2022-11-20T13:25:35;11.43;;;10.25;;
56161;SDS011;42045;52.986;6.014;2022-11-20T13:28:03;11.27;;;9.27;;
56161;SDS011;42045;52.986;6.014;2022-11-20T13:30:50;11.85;;;9.13;;
56161;SDS011;42045;52.986;6.014;2022-11-20T13:33:34;11.77;;;9.75;;
56161;SDS011;42045;52.986;6.014;2022-11-20T13:36:06;12.35;;;10.35;;
56161;SDS011;42045;52.986;6.014;2022-11-20T13:44:05;13.55;;;10.95;;
56161;SDS011;42045;52.986;6.014;2022-11-20T13:46:46;12.05;;;10.02;;
56161;SDS011;42045;52.986;6.014;2022-11-20T13:49:26;12.15;;;9.80;;
56161;SDS011;42045;52.986;6.014;2022-11-20T13:54:55;12.20;;;10.25;;
56161;SDS011;42045;52.986;6.014;2022-11-20T13:57:35;13.45;;;10.73;;
56161;SDS011;42045;52.986;6.014;2022-11-20T14:00:17;12.02;;;9.88;;
56161;SDS011;42045;52.986;6.014;2022-11-20T14:05:31;12.63;;;10.30;;
56161;SDS011;42045;52.986;6.014;2022-11-20T14:08:05;12.60;;;10.20;;
56161;SDS011;42045;52.986;6.014;2022-11-20T14:10:38;15.68;;;11.57;;
56161;SDS011;42045;52.986;6.014;2022-11-20T14:13:12;13.00;;;10.55;;
56161;SDS011;42045;52.986;6.014;2022-11-20T14:15:43;12.98;;;10.85;;
56161;SDS011;42045;52.986;6.014;2022-11-20T14:18:12;14.07;;;10.05;;
56161;SDS011;42045;52.986;6.014;2022-11-20T14:20:40;13.15;;;10.63;;
56161;SDS011;42045;52.986;6.014;2022-11-20T14:23:08;14.13;;;10.80;;
56161;SDS011;42045;52.986;6.014;2022-11-20T14:25:35;13.20;;;10.23;;
56161;SDS011;42045;52.986;6.014;2022-11-20T14:28:02;12.43;;;11.13;;
56161;SDS011;42045;52.986;6.014;2022-11-20T14:30:36;13.32;;;11.18;;
56161;SDS011;42045;52.986;6.014;2022-11-20T14:33:11;13.27;;;10.95;;
56161;SDS011;42045;52.986;6.014;2022-11-20T14:38:13;15.05;;;12.23;;
56161;SDS011;42045;52.986;6.014;2022-11-20T14:40:40;14.32;;;11.18;;
56161;SDS011;42045;52.986;6.014;2022-11-20T14:43:18;16.23;;;11.93;;
56161;SDS011;42045;52.986;6.014;2022-11-20T14:46:03;14.30;;;11.40;;
56161;SDS011;42045;52.986;6.014;2022-11-20T14:48:35;13.82;;;11.93;;
56161;SDS011;42045;52.986;6.014;2022-11-20T14:54:18;15.40;;;12.63;;
56161;SDS011;42045;52.986;6.014;2022-11-20T14:56:56;13.95;;;11.45;;
56161;SDS011;42045;52.986;6.014;2022-11-20T14:59:24;15.98;;;13.18;;
56161;SDS011;42045;52.986;6.014;2022-11-20T15:01:59;15.70;;;12.50;;
56161;SDS011;42045;52.986;6.014;2022-11-20T15:04:30;14.57;;;11.82;;
56161;SDS011;42045;52.986;6.014;2022-11-20T15:06:56;15.15;;;12.32;;
56161;SDS011;42045;52.986;6.014;2022-11-20T15:09:24;13.63;;;11.43;;
56161;SDS011;42045;52.986;6.014;2022-11-20T15:14:26;14.45;;;12.13;;
56161;SDS011;42045;52.986;6.014;2022-11-20T15:16:54;32.97;;;16.48;;
56161;SDS011;42045;52.986;6.014;2022-11-20T15:19:21;29.90;;;16.33;;
56161;SDS011;42045;52.986;6.014;2022-11-20T15:21:48;26.42;;;16.08;;
56161;SDS011;42045;52.986;6.014;2022-11-20T15:24:14;17.30;;;13.65;;
56161;SDS011;42045;52.986;6.014;2022-11-20T15:26:40;17.70;;;14.45;;
56161;SDS011;42045;52.986;6.014;2022-11-20T15:29:10;19.63;;;14.40;;
56161;SDS011;42045;52.986;6.014;2022-11-20T15:31:38;19.88;;;15.40;;
56161;SDS011;42045;52.986;6.014;2022-11-20T15:34:13;22.55;;;15.98;;
56161;SDS011;42045;52.986;6.014;2022-11-20T15:36:40;17.27;;;12.98;;
56161;SDS011;42045;52.986;6.014;2022-11-20T15:39:07;15.95;;;12.88;;
56161;SDS011;42045;52.986;6.014;2022-11-20T15:41:34;18.75;;;12.95;;
56161;SDS011;42045;52.986;6.014;2022-11-20T15:44:00;17.77;;;13.35;;
56161;SDS011;42045;52.986;6.014;2022-11-20T15:46:26;15.27;;;12.82;;
56161;SDS011;42045;52.986;6.014;2022-11-20T15:48:55;14.05;;;11.60;;
56161;SDS011;42045;52.986;6.014;2022-11-20T15:53:58;15.43;;;12.40;;
56161;SDS011;42045;52.986;6.014;2022-11-20T15:56:24;15.55;;;12.23;;
56161;SDS011;42045;52.986;6.014;2022-11-20T15:58:51;14.35;;;12.45;;
56161;SDS011;42045;52.986;6.014;2022-11-20T16:01:17;16.45;;;13.52;;
56161;SDS011;42045;52.986;6.014;2022-11-20T16:03:45;15.10;;;12.57;;
56161;SDS011;42045;52.986;6.014;2022-11-20T16:06:11;14.88;;;12.65;;
56161;SDS011;42045;52.986;6.014;2022-11-20T16:08:37;14.90;;;12.05;;
56161;SDS011;42045;52.986;6.014;2022-11-20T16:11:03;15.98;;;13.30;;
56161;SDS011;42045;52.986;6.014;2022-11-20T16:13:30;15.40;;;12.10;;
56161;SDS011;42045;52.986;6.014;2022-11-20T16:16:22;16.17;;;13.40;;
56161;SDS011;42045;52.986;6.014;2022-11-20T16:18:54;16.67;;;13.88;;
56161;SDS011;42045;52.986;6.014;2022-11-20T16:21:19;23.85;;;17.70;;
56161;SDS011;42045;52.986;6.014;2022-11-20T16:23:45;32.28;;;23.17;;
56161;SDS011;42045;52.986;6.014;2022-11-20T16:26:12;30.27;;;20.77;;
56161;SDS011;42045;52.986;6.014;2022-11-20T16:28:39;28.27;;;20.13;;
56161;SDS011;42045;52.986;6.014;2022-11-20T16:31:12;23.58;;;18.58;;
56161;SDS011;42045;52.986;6.014;2022-11-20T16:33:39;22.27;;;18.23;;
56161;SDS011;42045;52.986;6.014;2022-11-20T16:36:09;18.13;;;13.85;;
56161;SDS011;42045;52.986;6.014;2022-11-20T16:38:39;17.58;;;13.45;;
56161;SDS011;42045;52.986;6.014;2022-11-20T16:41:05;19.13;;;14.23;;
56161;SDS011;42045;52.986;6.014;2022-11-20T16:43:45;18.15;;;14.80;;
56161;SDS011;42045;52.986;6.014;2022-11-20T16:46:15;19.52;;;14.98;;
56161;SDS011;42045;52.986;6.014;2022-11-20T16:48:43;16.55;;;13.73;;